createdAt,value
2022-11-15T00:01:10.895Z,27.50
2022-11-15T00:03:37.181Z,25.93
2022-11-15T00:06:04.494Z,27.77
2022-11-15T00:08:31.690Z,27.00
2022-11-15T00:10:58.761Z,27.43
2022-11-15T00:13:24.991Z,27.07
2022-11-15T00:15:51.231Z,28.03
2022-11-15T00:18:17.990Z,27.30
2022-11-15T00:20:44.311Z,27.97
2022-11-15T00:23:10.844Z,27.53
2022-11-15T00:25:37.198Z,28.73
2022-11-15T00:28:03.496Z,28.53
2022-11-15T00:30:29.760Z,27.90
2022-11-15T00:32:55.997Z,28.10
2022-11-15T00:35:22.944Z,27.77
2022-11-15T00:37:49.257Z,27.73
2022-11-15T00:40:16.033Z,27.77
2022-11-15T00:42:42.358Z,27.27
2022-11-15T00:45:09.188Z,28.10
2022-11-15T00:47:35.418Z,27.97
2022-11-15T00:50:01.667Z,27.87
2022-11-15T00:52:27.893Z,27.33
2022-11-15T00:54:54.121Z,27.73
2022-11-15T00:57:20.329Z,27.07
2022-11-15T00:59:46.582Z,27.90
2022-11-15T01:02:12.824Z,27.03
2022-11-15T01:04:39.067Z,27.70
2022-11-15T01:07:05.310Z,27.73
2022-11-15T01:09:31.578Z,27.60
2022-11-15T01:11:57.798Z,27.73
2022-11-15T01:14:25.558Z,28.30
2022-11-15T01:16:52.057Z,27.37
2022-11-15T01:19:18.282Z,27.37
2022-11-15T01:21:44.507Z,28.10
2022-11-15T01:24:13.146Z,27.90
2022-11-15T01:26:39.495Z,29.07
2022-11-15T01:29:05.713Z,28.13
2022-11-15T01:31:31.934Z,28.50
2022-11-15T01:33:58.181Z,29.17
2022-11-15T01:36:24.645Z,27.03
2022-11-15T01:38:59.857Z,27.63
2022-11-15T01:41:30.667Z,27.90
2022-11-15T01:43:58.552Z,29.03
2022-11-15T01:46:27.849Z,28.47
2022-11-15T01:48:55.263Z,28.47
2022-11-15T01:51:22.935Z,27.93
2022-11-15T01:53:51.521Z,29.33
2022-11-15T01:56:19.910Z,28.17
2022-11-15T01:58:46.742Z,29.07
2022-11-15T02:01:13.804Z,28.80
2022-11-15T02:03:52.720Z,28.93
2022-11-15T02:06:19.281Z,29.57
2022-11-15T02:08:45.652Z,29.57
2022-11-15T02:11:11.867Z,28.80
2022-11-15T02:13:39.204Z,28.03
2022-11-15T02:16:20.833Z,28.70
2022-11-15T02:18:53.163Z,28.17
2022-11-15T02:21:26.877Z,29.57
2022-11-15T02:24:05.348Z,29.30
2022-11-15T02:26:51.863Z,29.00
2022-11-15T02:29:31.205Z,29.10
2022-11-15T02:32:03.329Z,29.57
2022-11-15T02:34:36.125Z,28.63
2022-11-15T02:37:07.886Z,28.87
2022-11-15T02:39:38.172Z,30.57
2022-11-15T02:42:28.440Z,29.90
2022-11-15T02:44:57.652Z,29.07
2022-11-15T02:47:25.122Z,28.87
2022-11-15T02:49:53.032Z,28.40
2022-11-15T02:52:21.391Z,29.77
2022-11-15T02:54:54.081Z,28.90
2022-11-15T02:57:24.202Z,28.93
2022-11-15T03:00:02.308Z,29.43
2022-11-15T03:02:40.927Z,28.80
2022-11-15T03:05:18.415Z,28.27
2022-11-15T03:08:02.317Z,28.43
2022-11-15T03:10:48.015Z,28.13
2022-11-15T03:13:33.147Z,28.73
2022-11-15T03:16:04.550Z,28.87
2022-11-15T03:18:35.092Z,28.37
2022-11-15T03:21:03.433Z,27.70
2022-11-15T03:23:31.125Z,28.23
2022-11-15T03:25:59.272Z,26.40
2022-11-15T03:28:28.947Z,27.27
2022-11-15T03:30:56.254Z,27.37
2022-11-15T03:33:22.953Z,27.77
2022-11-15T03:35:49.516Z,27.23
2022-11-15T03:38:18.368Z,26.87
2022-11-15T03:41:10.903Z,26.97
2022-11-15T03:43:46.433Z,27.13
2022-11-15T03:46:20.653Z,26.20
2022-11-15T03:49:00.861Z,27.17
2022-11-15T03:51:27.094Z,26.60
2022-11-15T03:53:53.314Z,26.60
2022-11-15T03:56:19.535Z,28.07
2022-11-15T03:58:45.777Z,28.00
2022-11-15T04:01:12.035Z,27.17
2022-11-15T04:03:38.305Z,26.83
2022-11-15T04:06:04.646Z,28.43
2022-11-15T04:08:30.895Z,27.00
2022-11-15T04:10:57.593Z,26.83
2022-11-15T04:13:23.855Z,27.30
2022-11-15T04:15:50.726Z,26.47
2022-11-15T04:18:17.003Z,27.53
2022-11-15T04:21:01.796Z,26.53
2022-11-15T04:23:46.566Z,28.47
2022-11-15T04:26:16.809Z,27.23
2022-11-15T04:29:02.073Z,26.80
2022-11-15T04:31:28.482Z,26.53
2022-11-15T04:33:55.023Z,27.60
2022-11-15T04:36:40.099Z,27.40
2022-11-15T04:39:06.443Z,27.83
2022-11-15T04:41:32.752Z,27.67
2022-11-15T04:43:59.047Z,26.10
2022-11-15T04:46:25.688Z,27.60
2022-11-15T04:48:57.998Z,28.03
2022-11-15T04:51:25.920Z,27.07
2022-11-15T04:53:52.191Z,28.63
2022-11-15T04:56:18.418Z,27.30
2022-11-15T04:58:44.667Z,26.30
2022-11-15T05:01:11.867Z,26.50
2022-11-15T05:03:57.269Z,27.40
2022-11-15T05:06:23.482Z,26.77
2022-11-15T05:08:49.715Z,26.90
2022-11-15T05:11:15.926Z,26.50
2022-11-15T05:13:42.159Z,26.23
2022-11-15T05:16:08.438Z,26.97
2022-11-15T05:18:34.666Z,26.13
2022-11-15T05:21:04.730Z,25.77
2022-11-15T05:23:31.288Z,26.60
2022-11-15T05:26:09.022Z,26.70
2022-11-15T05:28:36.011Z,25.77
2022-11-15T05:31:03.090Z,25.60
2022-11-15T05:33:29.980Z,26.77
2022-11-15T05:35:59.727Z,26.33
2022-11-15T05:38:26.142Z,26.00
2022-11-15T05:40:52.586Z,26.60
2022-11-15T05:43:18.856Z,26.03
2022-11-15T05:45:45.136Z,27.17
2022-11-15T05:48:11.548Z,26.00
2022-11-15T05:50:38.546Z,26.53
2022-11-15T05:53:05.634Z,25.60
2022-11-15T05:55:32.535Z,25.87
2022-11-15T05:57:58.813Z,25.23
2022-11-15T06:00:25.049Z,26.30
2022-11-15T06:02:51.283Z,24.83
2022-11-15T06:05:17.619Z,26.07
2022-11-15T06:07:45.411Z,25.37
2022-11-15T06:10:11.790Z,26.27
2022-11-15T06:12:38.012Z,24.73
2022-11-15T06:15:04.383Z,24.73
2022-11-15T06:17:30.606Z,25.37
2022-11-15T06:19:56.873Z,25.37
2022-11-15T06:22:23.089Z,24.90
2022-11-15T06:24:49.767Z,25.87
2022-11-15T06:27:15.978Z,26.03
2022-11-15T06:29:42.363Z,26.87
2022-11-15T06:32:08.578Z,27.23
2022-11-15T06:34:36.727Z,27.77
2022-11-15T06:37:03.512Z,27.93
2022-11-15T06:39:29.733Z,27.00
2022-11-15T06:41:55.941Z,26.13
2022-11-15T06:44:22.227Z,26.53
2022-11-15T06:46:48.430Z,32.67
2022-11-15T06:49:15.346Z,31.13
2022-11-15T06:51:41.553Z,30.27
2022-11-15T06:54:07.771Z,27.73
2022-11-15T06:56:34.579Z,28.13
2022-11-15T06:59:01.085Z,26.33
2022-11-15T07:01:27.340Z,26.53
2022-11-15T07:03:53.717Z,27.50
2022-11-15T07:06:19.950Z,26.33
2022-11-15T07:08:46.655Z,26.27
2022-11-15T07:11:12.924Z,26.17
2022-11-15T07:13:39.209Z,25.80
2022-11-15T07:16:06.638Z,25.90
2022-11-15T07:18:35.041Z,26.33
2022-11-15T07:21:02.089Z,26.50
2022-11-15T07:23:28.585Z,26.80
2022-11-15T07:25:56.918Z,26.13
2022-11-15T07:28:23.521Z,25.57
2022-11-15T07:30:49.945Z,26.27
2022-11-15T07:33:16.246Z,26.53
2022-11-15T07:35:43.582Z,26.43
2022-11-15T07:38:09.867Z,26.63
2022-11-15T07:40:36.091Z,26.33
2022-11-15T07:43:02.751Z,26.50
2022-11-15T07:45:29.103Z,27.10
2022-11-15T07:47:56.752Z,25.93
2022-11-15T07:50:24.017Z,27.30
2022-11-15T07:53:00.140Z,26.37
2022-11-15T07:55:28.070Z,27.10
2022-11-15T07:57:54.298Z,27.90
2022-11-15T08:00:20.607Z,27.13
2022-11-15T08:02:47.024Z,26.07
2022-11-15T08:05:13.614Z,26.17
2022-11-15T08:07:41.090Z,25.97
2022-11-15T08:10:08.876Z,26.03
2022-11-15T08:12:35.516Z,25.33
2022-11-15T08:15:02.284Z,25.10
2022-11-15T08:17:28.656Z,24.73
2022-11-15T08:19:54.937Z,24.37
2022-11-15T08:22:21.141Z,23.47
2022-11-15T08:24:47.415Z,23.47
2022-11-15T08:27:16.573Z,23.00
2022-11-15T08:29:44.010Z,23.57
2022-11-15T08:32:10.579Z,23.80
2022-11-15T08:34:36.886Z,24.23
2022-11-15T08:37:03.108Z,22.43
2022-11-15T08:39:29.350Z,23.17
2022-11-15T08:41:55.574Z,22.87
2022-11-15T08:44:21.851Z,21.50
2022-11-15T08:46:48.190Z,21.97
2022-11-15T08:49:14.503Z,21.90
2022-11-15T08:51:40.744Z,21.43
2022-11-15T08:54:06.965Z,21.63
2022-11-15T08:56:33.191Z,21.13
2022-11-15T08:58:59.409Z,20.17
2022-11-15T09:01:25.688Z,20.67
2022-11-15T09:03:52.160Z,19.97
2022-11-15T09:06:18.721Z,19.93
2022-11-15T09:08:47.874Z,18.33
2022-11-15T09:11:15.524Z,19.00
2022-11-15T09:13:41.879Z,18.53
2022-11-15T09:16:09.206Z,19.40
2022-11-15T09:18:35.671Z,18.87
2022-11-15T09:21:03.788Z,18.77
2022-11-15T09:23:30.110Z,18.33
2022-11-15T09:26:00.284Z,18.03
2022-11-15T09:28:26.519Z,17.10
2022-11-15T09:30:52.739Z,16.47
2022-11-15T09:33:19.043Z,17.13
2022-11-15T09:35:45.286Z,16.47
2022-11-15T09:38:11.494Z,15.50
2022-11-15T09:40:38.518Z,16.23
2022-11-15T09:43:19.788Z,15.83
2022-11-15T09:45:57.335Z,15.87
2022-11-15T09:48:29.897Z,15.37
2022-11-15T09:51:02.412Z,15.90
2022-11-15T09:54:30.306Z,15.43
2022-11-15T09:56:30.416Z,14.93
2022-11-15T09:58:56.629Z,16.40
2022-11-15T10:01:37.716Z,15.67
2022-11-15T10:04:07.812Z,14.50
2022-11-15T10:06:39.999Z,14.60
2022-11-15T10:09:12.412Z,14.67
2022-11-15T10:11:39.614Z,15.70
2022-11-15T10:14:17.980Z,15.47
2022-11-15T10:16:51.781Z,15.63
2022-11-15T10:19:31.106Z,16.20
2022-11-15T10:22:05.239Z,15.70
2022-11-15T10:24:40.218Z,14.77
2022-11-15T10:27:25.770Z,14.00
2022-11-15T10:29:52.030Z,14.27
2022-11-15T10:32:19.538Z,14.10
2022-11-15T10:34:46.229Z,15.17
2022-11-15T10:37:12.493Z,14.50
2022-11-15T10:39:38.828Z,15.20
2022-11-15T10:42:23.815Z,14.43
2022-11-15T10:44:50.064Z,14.73
2022-11-15T10:47:27.562Z,14.63
2022-11-15T10:49:55.137Z,14.70
2022-11-15T10:52:21.588Z,13.67
2022-11-15T10:54:53.142Z,14.00
2022-11-15T10:57:24.860Z,15.27
2022-11-15T10:59:55.795Z,14.43
2022-11-15T11:02:33.201Z,14.77
2022-11-15T11:04:59.923Z,14.73
2022-11-15T11:07:27.966Z,15.10
2022-11-15T11:10:09.784Z,13.93
2022-11-15T11:12:49.228Z,14.70
2022-11-15T11:15:16.438Z,14.83
2022-11-15T11:17:45.407Z,14.63
2022-11-15T11:20:19.263Z,14.80
2022-11-15T11:22:54.748Z,14.97
2022-11-15T11:25:29.212Z,14.00
2022-11-15T11:28:03.767Z,14.27
2022-11-15T11:30:38.631Z,13.93
2022-11-15T11:33:18.842Z,14.13
2022-11-15T11:35:50.643Z,13.87
2022-11-15T11:38:19.882Z,13.67
2022-11-15T11:41:01.165Z,13.87
2022-11-15T11:43:37.890Z,14.43
2022-11-15T11:46:13.434Z,13.83
2022-11-15T11:48:59.740Z,14.50
2022-11-15T11:51:32.163Z,14.00
2022-11-15T11:54:02.358Z,14.17
2022-11-15T11:56:32.738Z,13.73
2022-11-15T11:59:18.568Z,14.70
2022-11-15T12:01:45.950Z,13.60
2022-11-15T12:04:19.077Z,14.07
2022-11-15T12:06:50.587Z,14.00
2022-11-15T12:09:27.444Z,13.80
2022-11-15T12:12:01.695Z,14.07
2022-11-15T12:14:37.300Z,13.97
2022-11-15T12:17:03.545Z,14.30
2022-11-15T12:19:30.707Z,13.10
2022-11-15T12:22:02.760Z,13.17
2022-11-15T12:24:31.540Z,12.63
2022-11-15T12:27:03.190Z,13.10
2022-11-15T12:29:34.667Z,12.20
2022-11-15T12:32:01.725Z,12.00
2022-11-15T12:34:27.969Z,12.67
2022-11-15T12:36:54.386Z,12.10
2022-11-15T12:39:21.758Z,12.03
2022-11-15T12:41:57.250Z,11.70
2022-11-15T12:44:32.686Z,11.50
2022-11-15T12:46:58.910Z,11.93
2022-11-15T12:49:25.098Z,11.33
2022-11-15T12:51:52.871Z,10.77
2022-11-15T12:54:25.174Z,10.37
2022-11-15T12:57:03.587Z,10.70
2022-11-15T12:59:48.721Z,10.43
2022-11-15T13:02:19.244Z,10.83
2022-11-15T13:04:45.524Z,12.13
2022-11-15T13:07:31.776Z,11.97
2022-11-15T13:09:58.168Z,11.60
2022-11-15T13:12:27.273Z,11.90
2022-11-15T13:14:54.424Z,12.00
2022-11-15T13:17:20.629Z,11.93
2022-11-15T13:19:47.871Z,11.87
2022-11-15T13:22:33.401Z,12.10
2022-11-15T13:25:00.205Z,12.60
2022-11-15T13:27:26.484Z,12.73
2022-11-15T13:29:53.688Z,12.17
2022-11-15T13:32:20.623Z,12.23
2022-11-15T13:34:52.649Z,11.93
2022-11-15T13:37:22.386Z,12.20
2022-11-15T13:39:49.429Z,12.83
2022-11-15T13:42:16.490Z,11.67
2022-11-15T13:44:56.051Z,11.40
2022-11-15T13:47:22.276Z,11.00
2022-11-15T13:49:48.508Z,10.70
2022-11-15T13:52:17.303Z,12.53
2022-11-15T13:54:59.174Z,12.87
2022-11-15T13:57:26.661Z,12.70
2022-11-15T13:59:54.295Z,12.87
2022-11-15T14:02:25.777Z,12.27
2022-11-15T14:04:56.798Z,12.33
2022-11-15T14:07:24.041Z,12.10
2022-11-15T14:09:50.811Z,12.10
2022-11-15T14:12:28.051Z,12.03
2022-11-15T14:14:54.649Z,11.70
2022-11-15T14:17:22.315Z,11.40
2022-11-15T14:19:48.569Z,12.40
2022-11-15T14:22:16.536Z,12.37
2022-11-15T14:24:46.711Z,14.07
2022-11-15T14:27:20.659Z,14.73
2022-11-15T14:29:47.525Z,15.27
2022-11-15T14:32:15.554Z,14.97
2022-11-15T14:34:58.421Z,15.10
2022-11-15T14:37:26.462Z,16.00
2022-11-15T14:39:53.285Z,15.40
2022-11-15T14:42:20.456Z,13.80
2022-11-15T14:44:47.236Z,14.20
2022-11-15T14:47:14.530Z,14.20
2022-11-15T14:49:40.823Z,13.83
2022-11-15T14:52:21.856Z,14.40
2022-11-15T14:54:48.101Z,14.83
2022-11-15T14:57:15.510Z,14.23
2022-11-15T14:59:41.725Z,14.77
2022-11-15T15:02:16.289Z,15.30
2022-11-15T15:04:42.570Z,14.43
2022-11-15T15:07:08.905Z,15.07
2022-11-15T15:09:35.243Z,14.20
2022-11-15T15:12:05.885Z,14.60
2022-11-15T15:14:32.606Z,14.77
2022-11-15T15:17:00.255Z,14.57
2022-11-15T15:19:26.475Z,14.80
2022-11-15T15:21:52.722Z,14.07
2022-11-15T15:24:18.986Z,14.33
2022-11-15T15:26:45.254Z,13.57
2022-11-15T15:29:11.477Z,14.13
2022-11-15T15:31:37.828Z,15.10
2022-11-15T15:34:04.127Z,14.87
2022-11-15T15:36:30.357Z,15.10
2022-11-15T15:38:56.592Z,15.50
2022-11-15T15:41:24.033Z,14.73
2022-11-15T15:43:50.261Z,15.90
2022-11-15T15:46:18.223Z,15.00
2022-11-15T15:48:45.158Z,14.67
2022-11-15T15:51:18.722Z,15.13
2022-11-15T15:53:46.113Z,15.13
2022-11-15T15:56:12.325Z,15.43
2022-11-15T15:58:38.600Z,14.57
2022-11-15T16:01:05.045Z,15.77
2022-11-15T16:03:36.655Z,15.33
2022-11-15T16:06:05.180Z,14.43
2022-11-15T16:08:47.652Z,15.03
2022-11-15T16:11:18.617Z,15.43
2022-11-15T16:13:44.929Z,15.73
2022-11-15T16:16:13.797Z,15.13
2022-11-15T16:18:40.388Z,15.57
2022-11-15T16:21:06.626Z,16.80
2022-11-15T16:23:32.873Z,16.17
2022-11-15T16:25:59.188Z,16.83
2022-11-15T16:28:26.788Z,15.93
2022-11-15T16:31:11.671Z,15.93
2022-11-15T16:33:38.117Z,16.50
2022-11-15T16:36:05.110Z,15.70
2022-11-15T16:38:31.911Z,16.13
2022-11-15T16:40:58.539Z,16.40
2022-11-15T16:43:25.035Z,15.87
2022-11-15T16:45:51.644Z,15.33
2022-11-15T16:48:25.540Z,16.57
2022-11-15T16:50:55.014Z,17.13
2022-11-15T16:53:21.253Z,16.17
2022-11-15T16:55:47.511Z,16.00
2022-11-15T16:58:13.744Z,16.77
2022-11-15T17:00:40.017Z,17.13
2022-11-15T17:03:07.230Z,18.43
2022-11-15T17:05:33.472Z,17.80
2022-11-15T17:07:59.767Z,18.60
2022-11-15T17:10:26.592Z,18.57
2022-11-15T17:12:53.146Z,19.20
2022-11-15T17:15:19.459Z,19.47
2022-11-15T17:17:50.726Z,20.40
2022-11-15T17:20:18.063Z,20.83
2022-11-15T17:22:45.192Z,21.90
2022-11-15T17:25:11.467Z,22.83
2022-11-15T17:27:37.676Z,23.47
2022-11-15T17:30:04.290Z,23.73
2022-11-15T17:32:30.526Z,23.90
2022-11-15T17:34:56.828Z,24.60
2022-11-15T17:37:23.036Z,24.47
2022-11-15T17:39:49.281Z,24.30
2022-11-15T17:42:15.512Z,24.40
2022-11-15T17:44:41.733Z,25.03
2022-11-15T17:47:08.552Z,25.93
2022-11-15T17:49:39.287Z,25.83
2022-11-15T17:52:05.667Z,26.80
2022-11-15T17:54:31.914Z,27.93
2022-11-15T17:56:58.170Z,27.77
2022-11-15T17:59:24.436Z,28.73
2022-11-15T18:01:50.758Z,29.03
2022-11-15T18:04:17.037Z,30.50
2022-11-15T18:06:44.851Z,29.83
2022-11-15T18:09:12.124Z,30.80
2022-11-15T18:11:39.998Z,29.53
2022-11-15T18:14:07.392Z,30.80
2022-11-15T18:16:34.887Z,30.33
2022-11-15T18:19:02.234Z,30.33
2022-11-15T18:21:29.746Z,31.27
2022-11-15T18:23:59.433Z,31.77
2022-11-15T18:26:29.538Z,29.23
2022-11-15T18:28:57.363Z,29.67
2022-11-15T18:31:24.721Z,29.80
2022-11-15T18:33:51.591Z,30.43
2022-11-15T18:36:19.418Z,29.83
2022-11-15T18:38:45.778Z,30.47
2022-11-15T18:41:13.456Z,29.90
2022-11-15T18:43:40.157Z,30.77
2022-11-15T18:46:08.987Z,30.73
2022-11-15T18:48:37.026Z,30.67
2022-11-15T18:51:05.469Z,29.37
2022-11-15T18:53:32.619Z,30.87
2022-11-15T18:56:03.034Z,29.97
2022-11-15T18:58:30.302Z,30.80
2022-11-15T19:01:06.694Z,30.47
2022-11-15T19:03:34.695Z,29.47
2022-11-15T19:06:02.226Z,29.80
2022-11-15T19:08:32.922Z,29.43
2022-11-15T19:11:09.646Z,30.53
2022-11-15T19:13:36.145Z,31.20
2022-11-15T19:16:03.596Z,30.90
2022-11-15T19:18:30.643Z,30.03
2022-11-15T19:20:57.161Z,30.13
2022-11-15T19:23:23.853Z,30.47
2022-11-15T19:25:53.813Z,30.63
2022-11-15T19:28:20.054Z,32.07
2022-11-15T19:30:46.295Z,31.73
2022-11-15T19:33:12.567Z,30.77
2022-11-15T19:35:38.791Z,31.07
2022-11-15T19:38:05.005Z,31.43
2022-11-15T19:40:32.743Z,30.30
2022-11-15T19:42:58.957Z,30.70
2022-11-15T19:45:25.193Z,30.60
2022-11-15T19:47:51.462Z,31.17
2022-11-15T19:50:17.932Z,31.43
2022-11-15T19:52:44.670Z,31.13
2022-11-15T19:55:11.380Z,31.07
2022-11-15T19:57:38.043Z,30.23
2022-11-15T20:00:07.456Z,31.97
2022-11-15T20:02:33.946Z,31.73
2022-11-15T20:05:00.368Z,31.07
2022-11-15T20:07:26.735Z,32.67
2022-11-15T20:09:53.815Z,32.87
2022-11-15T20:12:20.059Z,33.10
2022-11-15T20:14:46.935Z,31.83
2022-11-15T20:17:14.132Z,32.37
2022-11-15T20:19:40.385Z,32.27
2022-11-15T20:22:06.656Z,31.97
2022-11-15T20:24:32.907Z,32.37
2022-11-15T20:26:59.142Z,33.00
2022-11-15T20:29:25.433Z,35.10
2022-11-15T20:31:51.653Z,33.30
2022-11-15T20:34:18.274Z,34.37
2022-11-15T20:36:44.945Z,34.27
2022-11-15T20:39:11.160Z,32.90
2022-11-15T20:41:37.620Z,33.10
2022-11-15T20:44:04.046Z,30.97
2022-11-15T20:46:30.290Z,31.97
2022-11-15T20:48:56.570Z,31.53
2022-11-15T20:51:22.791Z,31.80
2022-11-15T20:53:50.150Z,31.27
2022-11-15T20:56:17.667Z,31.23
2022-11-15T20:58:45.667Z,32.73
2022-11-15T21:01:14.251Z,31.30
2022-11-15T21:03:40.754Z,32.17
2022-11-15T21:06:09.558Z,31.43
2022-11-15T21:08:54.728Z,29.90
2022-11-15T21:11:39.451Z,31.10
2022-11-15T21:14:09.295Z,28.90
2022-11-15T21:16:39.183Z,29.90
2022-11-15T21:19:06.624Z,29.10
2022-11-15T21:21:33.032Z,29.80
2022-11-15T21:23:59.240Z,30.50
2022-11-15T21:26:26.364Z,29.73
2022-11-15T21:28:52.609Z,30.43
2022-11-15T21:31:18.838Z,30.00
2022-11-15T21:33:45.170Z,29.40
2022-11-15T21:36:11.409Z,29.70
2022-11-15T21:38:38.239Z,31.40
2022-11-15T21:41:04.639Z,30.90
2022-11-15T21:43:31.069Z,30.07
2022-11-15T21:46:00.034Z,31.47
2022-11-15T21:48:26.847Z,30.53
2022-11-15T21:50:59.796Z,31.07
2022-11-15T21:53:26.469Z,30.47
2022-11-15T21:55:52.775Z,30.73
2022-11-15T21:58:19.503Z,31.67
2022-11-15T22:01:04.699Z,30.97
2022-11-15T22:03:31.147Z,30.23
2022-11-15T22:05:57.731Z,29.67
2022-11-15T22:08:24.257Z,29.40
2022-11-15T22:10:51.030Z,29.17
2022-11-15T22:13:17.266Z,31.50
2022-11-15T22:15:46.707Z,31.10
2022-11-15T22:18:13.244Z,31.30
2022-11-15T22:20:46.471Z,30.43
2022-11-15T22:23:12.719Z,31.70
2022-11-15T22:25:38.938Z,30.77
2022-11-15T22:28:05.262Z,28.43
2022-11-15T22:30:32.051Z,29.03
2022-11-15T22:32:58.334Z,28.17
2022-11-15T22:35:24.607Z,29.83
2022-11-15T22:37:52.669Z,28.37
2022-11-15T22:40:18.939Z,27.13
2022-11-15T22:42:45.254Z,28.27
2022-11-15T22:45:11.483Z,29.50
2022-11-15T22:47:37.707Z,28.20
2022-11-15T22:50:05.387Z,27.20
2022-11-15T22:52:31.611Z,27.00
2022-11-15T22:54:57.835Z,28.50
2022-11-15T22:57:24.081Z,27.57
2022-11-15T22:59:50.318Z,28.60
2022-11-15T23:02:16.580Z,28.93
2022-11-15T23:04:43.018Z,28.13
2022-11-15T23:07:09.284Z,28.73
2022-11-15T23:09:35.987Z,29.50
2022-11-15T23:12:21.057Z,30.00
2022-11-15T23:14:47.330Z,30.73
2022-11-15T23:17:13.582Z,31.57
2022-11-15T23:19:39.811Z,28.83
2022-11-15T23:22:24.499Z,29.17
2022-11-15T23:24:52.519Z,29.40
2022-11-15T23:27:20.583Z,30.57
2022-11-15T23:30:07.249Z,30.13
2022-11-15T23:32:52.118Z,28.77
2022-11-15T23:35:18.414Z,29.07
2022-11-15T23:37:44.690Z,29.67
2022-11-15T23:40:11.254Z,28.70
2022-11-15T23:42:37.509Z,30.00
2022-11-15T23:45:04.059Z,29.57
2022-11-15T23:47:30.266Z,30.13
2022-11-15T23:49:56.537Z,30.37
2022-11-15T23:52:23.224Z,30.73
2022-11-15T23:54:49.947Z,28.73
2022-11-15T23:57:16.169Z,28.00
2022-11-15T23:59:45.234Z,28.80
